Airfield :
LOGIN :

Register | Disclaimer

   EN    FR    IT 

 










Legend :    VFR   Marginal VFR   IFR   Intensive IFR   Very Intensive IFR
Visi :
Ceiling :
>= 8 km
>= 3000ft
5 to 8 km
1000 to 3000 ft
1500m to 5 km
500 to 1000 ft
800 to 1500m
200 to 500 ft
< 800m
< 200 ft
Symbols :   Thunderstorms  Fog  Heavy snow  Heavy precipitations  Wind > 20 kt
SIGMETs :     Misc.  Thunderstorms  Icing  Turbulence  Mountain Waves  Volcanic Ashes







- Airport Elevation : 194 ft


EBCV - Chièvres

CURRENT METAR :
  • 260855Z AUTO 26014KT 9999 BKN027/// 11/04 Q1018 BLU

EXPIRED METARs :
  • 260825Z AUTO 26012KT 9999 BKN027/// 11/05 Q1018 BLU
  • 260821Z AUTO 26012KT 9999 BKN027/// 10/05 Q1018 BLU
  • 260755Z AUTO 26011KT 9999 BKN024/// 10/05 Q1018 WHT
  • 260725Z AUTO 25013KT 9999 BKN021/// 10/05 Q1018 WHT
  • 260703Z AUTO 25011KT 9999 SCT019/// 10/06 Q1018 WHT
  • 260655Z AUTO 25011KT 9999 FEW019/// 10/06 Q1018 BLU
  • 260625Z AUTO 24009KT 9999 NCD 09/06 Q1018 BLU

TAF TAF EBCV
Valid from the 26 at 10:00 until the 26 at 19:00 UTC


260841Z 2610/2619 25012KT 9999 FEW035
PROB30
TEMPO 2610/2615 26015G25KT 6000 -SHRA SCT025 SCT040 BY EBWM
No reported NOTAMs for that airfield.



MET'MAP, your aeronautical weather chart ! - Copyright ORBIFLY December 2007 - Disclaimer

ORBIFLY MET'MAP TEAM :

Programming & Development : Alexandra Zaïnal
Concept & Development : Baudouin d'Aumeries
Co-Development & Prog : Marc-Olivier Méhu
Technical & hardware support : Manuel Goepfert

Contact : metmap@orbifly.com




SOURCES & CREDITS :

   NOAA